createdAt,value
2022-09-30T00:03:48.948Z,1.00
2022-09-30T00:17:48.979Z,1.00
2022-09-30T00:31:49.070Z,0.90
2022-09-30T00:45:49.014Z,0.90
2022-09-30T00:59:49.207Z,0.90
2022-09-30T01:13:49.108Z,1.00
2022-09-30T01:27:49.125Z,0.85
2022-09-30T01:41:49.106Z,0.95
2022-09-30T01:55:49.109Z,0.90
2022-09-30T02:09:49.164Z,0.70
2022-09-30T02:23:49.123Z,0.70
2022-09-30T02:37:49.145Z,0.80
2022-09-30T02:51:49.136Z,0.70
2022-09-30T03:05:49.137Z,0.60
2022-09-30T03:19:49.139Z,0.70
2022-09-30T03:33:49.161Z,0.60
2022-09-30T03:47:49.204Z,0.60
2022-09-30T04:01:49.348Z,0.50
2022-09-30T04:15:49.215Z,0.50
2022-09-30T04:29:49.269Z,0.50
2022-09-30T04:43:49.403Z,0.40
2022-09-30T04:57:49.385Z,0.50
2022-09-30T05:12:49.372Z,0.80
2022-09-30T05:27:49.382Z,1.40
2022-09-30T05:43:49.372Z,1.80
2022-09-30T05:58:49.377Z,2.30
2022-09-30T06:13:49.375Z,2.50
2022-09-30T06:28:49.405Z,2.50
2022-09-30T06:43:51.318Z,2.60
2022-09-30T06:58:49.396Z,2.20
2022-09-30T07:13:49.443Z,2.40
2022-09-30T07:28:49.407Z,2.10
2022-09-30T07:43:49.417Z,2.10
2022-09-30T07:58:49.423Z,1.95
2022-09-30T08:13:49.442Z,1.80
2022-09-30T08:28:49.513Z,1.30
2022-09-30T08:43:49.791Z,1.30
2022-09-30T08:58:49.621Z,1.30
2022-09-30T09:13:49.603Z,1.10
2022-09-30T09:28:51.663Z,1.00
2022-09-30T09:43:49.677Z,0.80
2022-09-30T09:50:00.563Z,1.10
2022-09-30T09:58:10.223Z,0.80
2022-09-30T10:12:10.254Z,0.80
2022-09-30T10:27:10.294Z,1.05
2022-09-30T10:44:10.328Z,0.80
2022-09-30T10:59:10.513Z,0.80
2022-09-30T11:14:10.627Z,0.60
2022-09-30T11:29:10.625Z,0.60
2022-09-30T11:44:10.598Z,0.70
2022-09-30T11:59:10.877Z,0.60
2022-09-30T12:14:11.018Z,2.30
2022-09-30T12:29:11.004Z,2.50
2022-09-30T12:44:11.224Z,2.10
2022-09-30T13:00:11.341Z,2.30
2022-09-30T13:15:12.284Z,2.80
2022-09-30T13:30:11.477Z,2.40
2022-09-30T13:45:11.541Z,2.60
2022-09-30T14:00:11.608Z,2.90
2022-09-30T14:15:11.641Z,2.55
2022-09-30T14:30:11.674Z,2.60
2022-09-30T14:45:11.688Z,2.60
2022-09-30T15:00:11.683Z,2.60
2022-09-30T15:15:11.698Z,2.50
2022-09-30T15:30:11.712Z,2.10
2022-09-30T15:45:11.672Z,2.30
2022-09-30T16:00:11.708Z,2.30
2022-09-30T16:15:11.725Z,2.00
2022-09-30T16:30:11.730Z,1.95
2022-09-30T16:45:11.757Z,2.20
2022-09-30T17:00:11.870Z,2.00
2022-09-30T17:15:11.832Z,1.80
2022-09-30T17:30:11.856Z,1.80
2022-09-30T17:44:11.864Z,1.70
2022-09-30T17:58:11.887Z,1.80
2022-09-30T18:12:11.843Z,1.60
2022-09-30T18:26:11.990Z,1.80
2022-09-30T18:40:12.063Z,1.70
2022-09-30T18:54:11.991Z,1.50
2022-09-30T19:08:12.036Z,3.40
2022-09-30T19:22:12.043Z,4.80
2022-09-30T19:36:14.344Z,6.30
2022-09-30T19:50:12.055Z,7.40
2022-09-30T20:04:12.080Z,7.70
2022-09-30T20:18:12.080Z,8.00
2022-09-30T20:32:12.087Z,8.00
2022-09-30T20:46:12.140Z,7.50
2022-09-30T21:00:12.095Z,6.70
2022-09-30T21:14:12.140Z,7.00
2022-09-30T21:28:12.196Z,6.40
2022-09-30T21:42:12.172Z,6.40
2022-09-30T21:56:12.249Z,5.90
2022-09-30T22:10:12.240Z,5.80
2022-09-30T22:24:12.251Z,5.70
2022-09-30T22:38:12.302Z,5.20
2022-09-30T22:52:12.268Z,4.90
2022-09-30T23:06:12.285Z,4.90
2022-09-30T23:20:12.292Z,4.30
2022-09-30T23:34:12.288Z,4.25
2022-09-30T23:48:12.319Z,4.05
